logo
Search for airport 
image banner adimage banner adimage banner ad
image banner ad

CAS2 - Moose Lake (Lodge)

Located in , Canada

ICAO - CAS2, IATA - YAD

Data provided by Airmate  

General information

Coordinates: N53°4'24" W125°24'33"
Elevation is 3500 feet MSL.
Magnetic variation is 18.7333° East
View others Airports in British Columbia

Operational data

Special qualification required
Current time UTC:
Current local time:
Weather at : - ( 0 km )
METAR: EKYT 171426Z AUTO 24013KT 120V270 2400 -RA FEW032/// BKN037/// BKN082/// 15/11 Q1009
View NOTAMs / SUP AIP / TFR affecting this airport [VIEW]
Communications frequencies: [VIEW]

Runways:

RWY identifierQFULength (ft)Width (ft)SurfaceLDA (ft)
06335040GRASS
24335040GRASS

Airport contact information

Address: Canada

Satellite view of CAS2